createdAt,value
2019-01-10T00:01:24.283Z,23.19
2019-01-10T00:06:23.062Z,23.32
2019-01-10T00:07:10.545Z,23.30
2019-01-10T00:07:57.207Z,23.28
2019-01-10T00:13:56.408Z,23.55
2019-01-10T00:16:07.360Z,23.45
2019-01-10T00:18:05.328Z,23.58
2019-01-10T00:27:41.957Z,23.68
2019-01-10T00:29:56.424Z,23.69
2019-01-10T00:31:56.405Z,23.55
2019-01-10T00:33:51.916Z,23.53
2019-01-10T00:37:54.070Z,23.64
2019-01-10T00:41:26.729Z,23.57
2019-01-10T00:42:13.593Z,23.44
2019-01-10T00:43:00.961Z,23.36
2019-01-10T00:44:14.235Z,23.36
2019-01-10T00:50:31.414Z,23.32
2019-01-10T00:53:33.640Z,23.33
2019-01-10T00:54:20.380Z,23.14
2019-01-10T01:05:40.523Z,22.79
2019-01-10T01:09:40.442Z,22.58
2019-01-10T01:10:27.445Z,22.72
2019-01-10T01:15:23.841Z,22.61
2019-01-10T01:16:10.853Z,22.60
2019-01-10T01:16:57.615Z,22.69
2019-01-10T01:17:44.218Z,22.67
2019-01-10T01:20:58.859Z,22.68
2019-01-10T01:22:52.212Z,22.55
2019-01-10T01:23:38.945Z,22.56
2019-01-10T01:24:25.355Z,22.59
2019-01-10T01:25:38.829Z,22.59
2019-01-10T01:28:54.054Z,22.59
2019-01-10T01:29:40.899Z,22.63
2019-01-10T01:30:28.320Z,22.69
2019-01-10T01:36:45.434Z,22.65
2019-01-10T01:43:41.571Z,22.76
2019-01-10T01:46:35.427Z,22.60
2019-01-10T01:47:22.134Z,22.61
2019-01-10T01:48:09.888Z,22.46
2019-01-10T01:48:56.309Z,22.61
2019-01-10T01:54:13.461Z,22.44
2019-01-10T01:56:13.489Z,22.41
2019-01-10T01:57:01.157Z,22.46
2019-01-10T02:00:32.058Z,22.44
2019-01-10T02:01:18.828Z,22.40
2019-01-10T02:02:06.316Z,22.42
2019-01-10T02:19:13.838Z,22.37
2019-01-10T02:23:17.407Z,22.22
2019-01-10T02:24:04.352Z,22.22
2019-01-10T02:24:51.493Z,22.21
2019-01-10T02:25:37.870Z,22.19
2019-01-10T02:26:24.672Z,22.22
2019-01-10T02:27:11.370Z,22.24
2019-01-10T02:30:09.837Z,22.23
2019-01-10T02:32:11.202Z,22.16
2019-01-10T02:32:57.830Z,22.15
2019-01-10T02:33:45.472Z,22.14
2019-01-10T02:41:22.158Z,22.33
2019-01-10T02:42:09.438Z,22.31
2019-01-10T02:43:58.014Z,22.40
2019-01-10T02:50:32.300Z,22.63
2019-01-10T02:51:47.479Z,22.64
2019-01-10T03:44:51.399Z,22.29
2019-01-10T03:55:42.343Z,21.83
2019-01-10T04:16:47.397Z,22.13
2019-01-10T04:20:22.310Z,22.06
2019-01-10T04:32:52.679Z,22.06
2019-01-10T04:36:27.031Z,22.13
2019-01-10T04:45:13.375Z,22.06
2019-01-10T04:50:09.052Z,21.79
2019-01-10T05:00:40.297Z,21.94
2019-01-10T05:05:10.593Z,21.98
2019-01-10T05:12:56.345Z,21.92
2019-01-10T05:15:06.586Z,22.05
2019-01-10T05:18:40.629Z,22.01
2019-01-10T05:50:48.682Z,21.22
2019-01-10T06:06:07.663Z,21.28
2019-01-10T06:08:27.323Z,21.31
2019-01-10T06:09:40.936Z,21.25
2019-01-10T06:10:54.259Z,21.19
2019-01-10T06:17:28.327Z,21.10
2019-01-10T06:31:50.411Z,20.95
2019-01-10T06:34:18.284Z,20.76
2019-01-10T06:46:11.720Z,20.87
2019-01-10T07:23:52.348Z,20.46
2019-01-10T07:35:32.081Z,20.53
2019-01-10T07:39:55.116Z,20.51
2019-01-10T07:47:28.276Z,20.32
2019-01-10T07:50:56.141Z,20.42
2019-01-10T07:53:28.379Z,20.49
2019-01-10T07:58:08.987Z,20.38
2019-01-10T08:05:19.749Z,20.39
2019-01-10T08:15:29.137Z,20.11
2019-01-10T08:17:57.266Z,20.17
2019-01-10T08:36:09.216Z,19.95
2019-01-10T08:40:52.445Z,20.03
2019-01-10T08:46:53.745Z,19.88
2019-01-10T09:09:42.788Z,20.06
2019-01-10T09:25:57.348Z,19.86
2019-01-10T09:30:31.353Z,19.82
2019-01-10T09:32:58.013Z,19.85
2019-01-10T09:43:49.649Z,19.81
2019-01-10T09:46:09.124Z,19.84
2019-01-10T09:46:55.716Z,19.78
2019-01-10T09:53:41.619Z,19.63
2019-01-10T10:14:01.682Z,19.35
2019-01-10T10:23:26.541Z,19.42
2019-01-10T10:27:50.499Z,19.34
2019-01-10T10:36:51.900Z,19.19
2019-01-10T10:39:06.860Z,19.24
2019-01-10T10:46:39.598Z,19.18
2019-01-10T10:47:26.403Z,19.18
2019-01-10T10:50:43.888Z,19.16
2019-01-10T10:51:57.189Z,19.10
2019-01-10T10:59:21.344Z,19.01
2019-01-10T11:02:56.730Z,19.09
2019-01-10T11:10:35.081Z,19.16
2019-01-10T11:31:28.228Z,20.05
2019-01-10T11:40:30.460Z,20.97
2019-01-10T11:45:04.409Z,21.35
2019-01-10T11:47:58.816Z,21.43
2019-01-10T11:57:17.511Z,21.82
2019-01-10T12:04:05.796Z,21.98
2019-01-10T12:19:01.136Z,22.52
2019-01-10T12:30:43.362Z,22.83
2019-01-10T12:39:25.072Z,23.07
2019-01-10T12:42:52.986Z,23.12
2019-01-10T12:45:21.571Z,23.07
2019-01-10T12:48:36.507Z,23.12
2019-01-10T12:54:06.047Z,23.14
2019-01-10T13:02:47.454Z,23.12
2019-01-10T13:04:49.781Z,23.03
2019-01-10T13:05:36.524Z,23.10
2019-01-10T13:06:24.128Z,23.08
2019-01-10T13:14:33.298Z,22.98
2019-01-10T13:15:47.893Z,22.97
2019-01-10T13:21:23.982Z,23.05
2019-01-10T13:22:37.605Z,23.06
2019-01-10T13:25:43.997Z,23.15
2019-01-10T13:34:08.696Z,23.25
2019-01-10T13:43:14.414Z,23.30
2019-01-10T13:45:16.521Z,23.26
2019-01-10T13:46:03.234Z,23.26
2019-01-10T13:49:02.633Z,23.27
2019-01-10T13:49:49.448Z,23.27
2019-01-10T13:52:04.045Z,23.24
2019-01-10T14:00:49.127Z,23.22
2019-01-10T14:02:16.644Z,23.14
2019-01-10T14:03:11.749Z,23.11
2019-01-10T14:03:49.871Z,23.12
2019-01-10T14:04:26.240Z,23.04
2019-01-10T14:05:19.740Z,22.98
2019-01-10T14:05:55.939Z,23.02
2019-01-10T14:06:32.860Z,22.94
2019-01-10T14:07:09.206Z,22.94
2019-01-10T14:07:46.469Z,22.93
2019-01-10T14:08:23.745Z,22.92
2019-01-10T14:09:00.552Z,22.95
2019-01-10T14:09:36.976Z,22.95
2019-01-10T14:10:14.205Z,22.96
2019-01-10T14:10:50.685Z,22.96
2019-01-10T14:11:27.570Z,23.04
2019-01-10T14:12:04.797Z,23.03
2019-01-10T14:12:42.099Z,23.05
2019-01-10T14:13:18.583Z,22.97
2019-01-10T14:13:55.501Z,23.02
2019-01-10T14:14:32.235Z,23.06
2019-01-10T14:15:10.297Z,23.05
2019-01-10T14:15:46.840Z,23.03
2019-01-10T14:16:23.498Z,23.08
2019-01-10T14:17:01.791Z,23.09
2019-01-10T14:17:38.308Z,23.06
2019-01-10T14:18:15.033Z,23.01
2019-01-10T14:18:51.127Z,23.11
2019-01-10T14:19:27.548Z,23.09
2019-01-10T14:20:04.607Z,23.09
2019-01-10T14:20:41.081Z,23.17
2019-01-10T14:21:17.560Z,23.17
2019-01-10T14:21:54.488Z,23.21
2019-01-10T14:22:31.056Z,23.20
2019-01-10T14:23:08.153Z,23.20
2019-01-10T14:23:45.308Z,23.22
2019-01-10T14:24:22.077Z,23.24
2019-01-10T14:24:58.757Z,23.24
2019-01-10T14:25:35.543Z,23.24
2019-01-10T14:26:12.645Z,23.21
2019-01-10T14:26:50.305Z,23.23
2019-01-10T14:27:26.910Z,23.25
2019-01-10T14:28:03.905Z,23.25
2019-01-10T14:28:40.747Z,23.29
2019-01-10T14:29:17.115Z,23.29
2019-01-10T14:29:53.997Z,23.22
2019-01-10T14:30:34.787Z,23.30
2019-01-10T14:31:11.837Z,23.30
2019-01-10T14:31:49.139Z,23.23
2019-01-10T14:32:26.306Z,23.23
2019-01-10T14:33:02.942Z,23.23
2019-01-10T14:33:39.157Z,23.23
2019-01-10T14:34:15.607Z,23.19
2019-01-10T14:34:52.094Z,23.13
2019-01-10T14:35:29.280Z,23.13
2019-01-10T14:36:06.459Z,23.08
2019-01-10T14:36:43.067Z,23.08
2019-01-10T14:37:20.421Z,23.19
2019-01-10T14:37:57.149Z,23.16
2019-01-10T14:38:34.376Z,23.16
2019-01-10T14:39:11.609Z,23.21
2019-01-10T14:39:47.981Z,23.21
2019-01-10T14:40:24.669Z,23.14
2019-01-10T14:41:01.313Z,23.16
2019-01-10T14:41:38.260Z,23.10
2019-01-10T14:42:15.180Z,23.14
2019-01-10T14:42:51.761Z,23.14
2019-01-10T14:43:28.432Z,23.09
2019-01-10T14:44:04.999Z,23.14
2019-01-10T14:44:41.542Z,23.10
2019-01-10T14:45:18.577Z,23.16
2019-01-10T14:45:56.097Z,23.15
2019-01-10T14:46:32.519Z,23.15
2019-01-10T14:47:08.881Z,23.24
2019-01-10T14:47:45.714Z,23.23
2019-01-10T14:48:22.647Z,23.21
2019-01-10T14:48:59.076Z,23.21
2019-01-10T14:49:35.644Z,23.22
2019-01-10T14:50:12.594Z,23.25
2019-01-10T14:50:49.750Z,23.26
2019-01-10T14:51:26.410Z,23.29
2019-01-10T14:52:03.168Z,23.34
2019-01-10T14:52:39.514Z,23.35
2019-01-10T14:53:16.413Z,23.35
2019-01-10T14:53:53.705Z,23.35
2019-01-10T14:54:30.210Z,23.32
2019-01-10T14:55:08.185Z,23.32
2019-01-10T14:55:44.708Z,23.32
2019-01-10T14:56:21.806Z,23.28
2019-01-10T14:56:58.889Z,23.16
2019-01-10T14:57:35.865Z,23.32
2019-01-10T14:58:12.811Z,23.34
2019-01-10T14:58:49.952Z,23.34
2019-01-10T14:59:26.689Z,23.31
2019-01-10T15:00:02.996Z,23.35
2019-01-10T15:00:40.272Z,23.35
2019-01-10T15:01:17.339Z,23.35
2019-01-10T15:01:53.887Z,23.37
2019-01-10T15:02:30.503Z,23.35
2019-01-10T15:03:07.395Z,23.38
2019-01-10T15:03:43.940Z,23.39
2019-01-10T15:04:20.570Z,23.39
2019-01-10T15:04:56.518Z,23.35
2019-01-10T15:05:34.562Z,23.40
2019-01-10T15:06:11.412Z,23.40
2019-01-10T15:06:48.334Z,23.37
2019-01-10T15:07:25.042Z,23.40
2019-01-10T15:08:01.710Z,23.40
2019-01-10T15:08:38.463Z,23.39
2019-01-10T15:09:15.371Z,23.38
2019-01-10T15:09:52.200Z,23.36
2019-01-10T15:10:29.238Z,23.38
2019-01-10T15:11:05.581Z,23.38
2019-01-10T15:11:41.915Z,23.37
2019-01-10T15:12:19.048Z,23.45
2019-01-10T15:12:55.299Z,23.45
2019-01-10T15:13:32.625Z,23.45
2019-01-10T15:14:09.444Z,23.48
2019-01-10T15:14:46.760Z,23.48
2019-01-10T15:15:24.876Z,23.39
2019-01-10T15:16:01.396Z,23.39
2019-01-10T15:16:38.179Z,23.39
2019-01-10T15:17:15.027Z,23.41
2019-01-10T15:17:52.120Z,23.45
2019-01-10T15:18:29.624Z,23.45
2019-01-10T15:19:06.722Z,23.48
2019-01-10T15:19:43.299Z,23.49
2019-01-10T15:20:23.240Z,23.53
2019-01-10T15:21:00.303Z,23.53
2019-01-10T15:21:37.098Z,23.52
2019-01-10T15:22:13.477Z,23.48
2019-01-10T15:22:50.439Z,23.52
2019-01-10T15:23:27.320Z,23.54
2019-01-10T15:24:04.008Z,23.54
2019-01-10T15:24:40.535Z,23.54
2019-01-10T15:25:17.915Z,23.49
2019-01-10T15:25:54.511Z,23.51
2019-01-10T15:26:31.085Z,23.51
2019-01-10T15:27:08.275Z,23.51
2019-01-10T15:27:45.595Z,23.56
2019-01-10T15:28:22.366Z,23.52
2019-01-10T15:28:59.483Z,23.50
2019-01-10T15:29:36.720Z,23.52
2019-01-10T15:30:19.239Z,23.56
2019-01-10T15:30:57.154Z,23.56
2019-01-10T15:31:34.079Z,23.55
2019-01-10T15:32:11.066Z,23.57
2019-01-10T15:32:47.772Z,23.54
2019-01-10T15:33:23.987Z,23.60
2019-01-10T15:34:00.740Z,23.59
2019-01-10T15:34:37.023Z,23.51
2019-01-10T15:35:13.568Z,23.59
2019-01-10T15:35:49.916Z,23.55
2019-01-10T15:36:26.230Z,23.53
2019-01-10T15:37:03.016Z,23.53
2019-01-10T15:37:39.569Z,23.44
2019-01-10T15:38:16.167Z,23.44
2019-01-10T15:38:52.729Z,23.11
2019-01-10T15:39:29.370Z,23.11
2019-01-10T15:40:07.064Z,23.40
2019-01-10T15:40:43.649Z,23.43
2019-01-10T15:41:20.364Z,23.43
2019-01-10T15:41:57.371Z,23.41
2019-01-10T15:42:33.644Z,23.42
2019-01-10T15:43:11.238Z,23.38
2019-01-10T15:43:47.997Z,23.34
2019-01-10T15:44:29.099Z,23.36
2019-01-10T15:45:03.975Z,23.38
2019-01-10T15:45:40.498Z,23.26
2019-01-10T15:46:17.276Z,23.26
2019-01-10T15:46:54.189Z,23.34
2019-01-10T15:47:30.500Z,23.35
2019-01-10T15:48:07.572Z,23.30
2019-01-10T15:48:43.955Z,23.24
2019-01-10T15:49:20.220Z,23.24
2019-01-10T15:49:56.778Z,23.22
2019-01-10T15:50:32.812Z,23.21
2019-01-10T15:51:09.870Z,23.21
2019-01-10T15:51:46.860Z,23.23
2019-01-10T15:52:23.694Z,23.25
2019-01-10T15:53:01.022Z,23.25
2019-01-10T15:53:36.964Z,23.23
2019-01-10T15:54:13.568Z,23.24
2019-01-10T15:54:50.775Z,23.22
2019-01-10T15:55:27.203Z,23.15
2019-01-10T15:56:04.528Z,23.10
2019-01-10T15:56:41.395Z,23.18
2019-01-10T15:57:17.657Z,23.18
2019-01-10T15:57:54.330Z,23.17
2019-01-10T15:58:31.431Z,23.13
2019-01-10T15:59:08.803Z,23.17
2019-01-10T15:59:45.866Z,23.20
2019-01-10T16:00:27.171Z,23.27
2019-01-10T16:01:03.883Z,23.23
2019-01-10T16:01:40.129Z,23.14
2019-01-10T16:02:16.743Z,23.14
2019-01-10T16:02:53.804Z,23.13
2019-01-10T16:03:30.440Z,23.08
2019-01-10T16:04:07.668Z,23.13
2019-01-10T16:04:45.472Z,23.26
2019-01-10T16:05:22.350Z,23.22
2019-01-10T16:05:59.077Z,23.06
2019-01-10T16:06:35.258Z,23.06
2019-01-10T16:07:11.954Z,22.88
2019-01-10T16:07:48.880Z,22.92
2019-01-10T16:08:25.895Z,22.87
2019-01-10T16:09:02.891Z,22.87
2019-01-10T16:09:39.756Z,22.94
2019-01-10T16:10:18.173Z,22.95
2019-01-10T16:10:55.105Z,22.96
2019-01-10T16:11:32.165Z,22.96
2019-01-10T16:12:08.817Z,22.97
2019-01-10T16:12:45.577Z,23.02
2019-01-10T16:13:22.049Z,23.00
2019-01-10T16:14:01.501Z,22.98
2019-01-10T16:14:38.345Z,22.98
2019-01-10T16:15:19.095Z,23.00
2019-01-10T16:15:56.170Z,22.96
2019-01-10T16:16:32.450Z,22.95
2019-01-10T16:17:08.694Z,22.90
2019-01-10T16:17:44.947Z,22.94
2019-01-10T16:18:21.735Z,22.94
2019-01-10T16:18:58.151Z,22.91
2019-01-10T16:19:34.678Z,22.91
2019-01-10T16:20:11.408Z,22.89
2019-01-10T16:20:47.790Z,22.97
2019-01-10T16:21:24.367Z,22.97
2019-01-10T16:22:01.272Z,22.99
2019-01-10T16:22:37.783Z,23.02
2019-01-10T16:23:14.364Z,23.01
2019-01-10T16:23:50.892Z,23.09
2019-01-10T16:24:27.342Z,23.09
2019-01-10T16:25:04.318Z,23.10
2019-01-10T16:25:40.791Z,23.12
2019-01-10T16:26:17.246Z,23.18
2019-01-10T16:26:54.324Z,23.18
2019-01-10T16:27:30.616Z,23.19
2019-01-10T16:28:07.437Z,23.17
2019-01-10T16:28:44.160Z,23.20
2019-01-10T16:29:20.617Z,23.20
2019-01-10T16:29:57.351Z,23.24
2019-01-10T16:30:34.212Z,23.26
2019-01-10T16:31:11.104Z,23.29
2019-01-10T16:31:48.342Z,23.31
2019-01-10T16:32:25.238Z,23.33
2019-01-10T16:33:02.176Z,23.39
2019-01-10T16:33:38.967Z,23.39
2019-01-10T16:34:15.610Z,23.40
2019-01-10T16:34:52.608Z,23.40
2019-01-10T16:35:29.372Z,23.40
2019-01-10T16:36:05.934Z,23.36
2019-01-10T16:36:42.571Z,23.36
2019-01-10T16:37:19.135Z,23.43
2019-01-10T16:37:55.590Z,23.48
2019-01-10T16:38:32.532Z,23.50
2019-01-10T16:39:10.543Z,23.53
2019-01-10T16:39:46.929Z,23.53
2019-01-10T16:40:23.767Z,23.56
2019-01-10T16:41:00.164Z,23.57
2019-01-10T16:41:37.631Z,23.66
2019-01-10T16:42:14.397Z,23.66
2019-01-10T16:42:51.109Z,23.69
2019-01-10T16:43:28.171Z,23.65
2019-01-10T16:44:04.964Z,23.65
2019-01-10T16:44:42.101Z,23.76
2019-01-10T16:45:25.245Z,23.76
2019-01-10T16:46:01.993Z,23.82
2019-01-10T16:46:38.497Z,23.86
2019-01-10T16:47:15.337Z,23.86
2019-01-10T16:47:51.742Z,23.90
2019-01-10T16:48:27.904Z,23.90
2019-01-10T16:49:04.472Z,23.78
2019-01-10T16:49:40.595Z,23.76
2019-01-10T16:50:17.337Z,23.76
2019-01-10T16:50:54.478Z,23.88
2019-01-10T16:51:30.909Z,23.88
2019-01-10T16:52:07.103Z,23.67
2019-01-10T16:52:43.480Z,23.87
2019-01-10T16:53:20.055Z,23.87
2019-01-10T16:53:56.968Z,23.88
2019-01-10T16:54:33.619Z,23.92
2019-01-10T16:55:11.423Z,23.86
2019-01-10T16:55:48.034Z,23.91
2019-01-10T16:56:24.792Z,23.91
2019-01-10T16:57:01.441Z,23.90
2019-01-10T16:57:37.971Z,23.90
2019-01-10T16:58:15.307Z,23.86
2019-01-10T16:58:51.916Z,23.79
2019-01-10T16:59:29.222Z,23.79
2019-01-10T17:00:06.528Z,23.79
2019-01-10T17:00:43.395Z,23.75
2019-01-10T17:01:20.388Z,23.77
2019-01-10T17:01:57.222Z,23.77
2019-01-10T17:02:36.287Z,23.70
2019-01-10T17:03:11.930Z,23.70
2019-01-10T17:03:49.347Z,23.68
2019-01-10T17:04:26.430Z,23.68
2019-01-10T17:05:03.222Z,23.61
2019-01-10T17:05:40.236Z,23.61
2019-01-10T17:06:16.863Z,23.61
2019-01-10T17:06:53.734Z,23.61
2019-01-10T17:07:30.320Z,23.55
2019-01-10T17:08:08.432Z,23.55
2019-01-10T17:08:44.641Z,23.58
2019-01-10T17:09:22.323Z,23.59
2019-01-10T17:09:59.059Z,23.53
2019-01-10T17:10:36.108Z,23.54
2019-01-10T17:11:12.994Z,23.53
2019-01-10T17:11:50.178Z,23.53
2019-01-10T17:12:26.895Z,23.52
2019-01-10T17:13:04.031Z,23.51
2019-01-10T17:13:40.971Z,23.54
2019-01-10T17:14:17.558Z,23.50
2019-01-10T17:14:54.962Z,23.60
2019-01-10T17:15:32.001Z,23.60
2019-01-10T17:16:08.763Z,23.54
2019-01-10T17:16:50.150Z,23.54
2019-01-10T17:17:23.533Z,23.58
2019-01-10T17:17:59.839Z,23.60
2019-01-10T17:18:35.909Z,23.60
2019-01-10T17:19:25.692Z,23.63
2019-01-10T17:20:02.418Z,23.52
2019-01-10T17:20:39.439Z,23.39
2019-01-10T17:21:16.357Z,23.31
2019-01-10T17:21:53.499Z,23.31
2019-01-10T17:22:29.770Z,23.28
2019-01-10T17:23:07.390Z,23.28
2019-01-10T17:23:45.542Z,23.22
2019-01-10T17:24:22.568Z,23.17
2019-01-10T17:24:59.550Z,23.10
2019-01-10T17:25:36.627Z,23.10
2019-01-10T17:26:13.029Z,23.16
2019-01-10T17:26:49.785Z,23.10
2019-01-10T17:27:26.451Z,23.17
2019-01-10T17:28:03.121Z,23.17
2019-01-10T17:28:40.623Z,23.13
2019-01-10T17:29:17.575Z,23.13
2019-01-10T17:29:54.418Z,23.19
2019-01-10T17:30:32.638Z,23.14
2019-01-10T17:31:09.794Z,23.06
2019-01-10T17:31:46.455Z,23.06
2019-01-10T17:32:23.688Z,22.98
2019-01-10T17:33:00.665Z,23.15
2019-01-10T17:33:37.354Z,23.15
2019-01-10T17:34:14.133Z,23.11
2019-01-10T17:34:51.301Z,23.10
2019-01-10T17:35:30.698Z,23.07
2019-01-10T17:36:07.571Z,22.97
2019-01-10T17:36:44.717Z,22.97
2019-01-10T17:37:22.186Z,23.02
2019-01-10T17:37:58.797Z,23.05
2019-01-10T17:38:35.481Z,22.95
2019-01-10T17:39:12.713Z,23.01
2019-01-10T17:39:49.442Z,23.01
2019-01-10T17:40:26.611Z,23.03
2019-01-10T17:41:03.376Z,23.03
2019-01-10T17:41:40.488Z,22.92
2019-01-10T17:42:17.520Z,22.92
2019-01-10T17:42:54.936Z,23.01
2019-01-10T17:43:31.351Z,22.95
2019-01-10T17:44:07.896Z,22.95
2019-01-10T17:44:44.963Z,22.95
2019-01-10T17:45:23.720Z,22.89
2019-01-10T17:46:00.947Z,22.99
2019-01-10T17:46:38.131Z,22.99
2019-01-10T17:47:15.298Z,22.99
2019-01-10T17:47:55.321Z,23.00
2019-01-10T17:48:32.061Z,23.02
2019-01-10T17:49:08.790Z,22.98
2019-01-10T17:49:45.565Z,22.95
2019-01-10T17:50:22.169Z,22.91
2019-01-10T17:50:58.747Z,22.91
2019-01-10T17:51:35.665Z,22.96
2019-01-10T17:52:12.531Z,22.94
2019-01-10T17:52:49.676Z,22.99
2019-01-10T17:53:26.154Z,23.10
2019-01-10T17:54:02.772Z,22.97
2019-01-10T17:54:39.613Z,23.03
2019-01-10T17:55:16.517Z,23.03
2019-01-10T17:55:53.116Z,22.95
2019-01-10T17:56:29.364Z,22.95
2019-01-10T17:57:05.962Z,22.91
2019-01-10T17:57:42.743Z,22.90
2019-01-10T17:58:20.177Z,22.90
2019-01-10T17:58:56.791Z,22.86
2019-01-10T17:59:33.462Z,22.77
2019-01-10T18:00:14.939Z,22.77
2019-01-10T18:00:51.377Z,22.68
2019-01-10T18:01:29.021Z,22.68
2019-01-10T18:02:05.284Z,22.76
2019-01-10T18:02:42.316Z,22.64
2019-01-10T18:03:19.480Z,22.75
2019-01-10T18:03:56.175Z,22.75
2019-01-10T18:04:33.111Z,22.80
2019-01-10T18:05:10.177Z,22.82
2019-01-10T18:05:47.507Z,22.85
2019-01-10T18:06:24.407Z,22.85
2019-01-10T18:07:00.666Z,22.84
2019-01-10T18:07:37.502Z,22.89
2019-01-10T18:08:14.048Z,22.89
2019-01-10T18:08:50.603Z,22.85
2019-01-10T18:09:27.530Z,22.96
2019-01-10T18:10:04.289Z,22.92
2019-01-10T18:10:41.168Z,22.92
2019-01-10T18:11:18.562Z,23.05
2019-01-10T18:11:55.054Z,23.10
2019-01-10T18:12:31.618Z,23.11
2019-01-10T18:13:08.611Z,23.18
2019-01-10T18:13:45.417Z,23.23
2019-01-10T18:14:22.867Z,23.23
2019-01-10T18:15:00.290Z,23.21
2019-01-10T18:15:36.517Z,23.22
2019-01-10T18:16:13.383Z,23.22
2019-01-10T18:16:50.281Z,23.29
2019-01-10T18:17:28.187Z,23.32
2019-01-10T18:18:04.720Z,23.32
2019-01-10T18:18:41.448Z,23.38
2019-01-10T18:19:18.386Z,23.38
2019-01-10T18:19:54.819Z,23.39
2019-01-10T18:20:36.064Z,23.44
2019-01-10T18:21:15.047Z,23.44
2019-01-10T18:21:51.648Z,23.49
2019-01-10T18:22:28.642Z,23.49
2019-01-10T18:23:05.243Z,23.53
2019-01-10T18:23:41.829Z,23.55
2019-01-10T18:24:18.359Z,23.56
2019-01-10T18:24:54.989Z,23.52
2019-01-10T18:25:31.415Z,23.51
2019-01-10T18:26:07.947Z,23.54
2019-01-10T18:26:44.591Z,23.56
2019-01-10T18:27:21.040Z,23.64
2019-01-10T18:27:57.624Z,23.64
2019-01-10T18:28:34.426Z,23.66
2019-01-10T18:29:11.786Z,23.69
2019-01-10T18:29:48.767Z,23.73
2019-01-10T18:30:25.399Z,23.79
2019-01-10T18:31:01.686Z,23.79
2019-01-10T18:31:38.784Z,23.84
2019-01-10T18:32:16.380Z,23.77
2019-01-10T18:32:53.407Z,23.77
2019-01-10T18:33:29.753Z,23.82
2019-01-10T18:34:06.342Z,23.83
2019-01-10T18:34:43.448Z,23.83
2019-01-10T18:35:26.064Z,23.79
2019-01-10T18:35:59.974Z,23.90
2019-01-10T18:36:36.716Z,23.90
2019-01-10T18:37:13.856Z,23.89
2019-01-10T18:37:50.681Z,23.89
2019-01-10T18:38:30.860Z,23.88
2019-01-10T18:39:09.937Z,23.88
2019-01-10T18:39:46.954Z,23.86
2019-01-10T18:40:23.494Z,23.91
2019-01-10T18:41:00.206Z,23.89
2019-01-10T18:41:36.784Z,23.93
2019-01-10T18:42:13.577Z,23.89
2019-01-10T18:42:50.172Z,23.89
2019-01-10T18:43:27.529Z,23.92
2019-01-10T18:44:06.547Z,23.90
2019-01-10T18:44:43.676Z,23.92
2019-01-10T18:45:23.332Z,23.94
2019-01-10T18:46:00.988Z,23.90
2019-01-10T18:46:37.496Z,23.89
2019-01-10T18:47:13.870Z,23.84
2019-01-10T18:47:56.696Z,23.76
2019-01-10T18:48:28.921Z,23.78
2019-01-10T18:49:06.124Z,23.88
2019-01-10T18:49:44.039Z,23.88
2019-01-10T18:50:22.835Z,23.80
2019-01-10T18:50:59.375Z,23.92
2019-01-10T18:51:35.562Z,23.87
2019-01-10T18:52:12.168Z,23.87
2019-01-10T18:52:49.030Z,23.88
2019-01-10T18:53:25.889Z,23.81
2019-01-10T18:54:02.824Z,23.72
2019-01-10T18:54:39.319Z,23.69
2019-01-10T18:55:16.531Z,23.61
2019-01-10T18:55:53.974Z,23.75
2019-01-10T18:56:30.882Z,23.36
2019-01-10T18:57:07.664Z,23.36
2019-01-10T18:57:43.923Z,23.52
2019-01-10T18:58:20.406Z,23.49
2019-01-10T18:58:57.376Z,23.49
2019-01-10T18:59:36.595Z,23.56
2019-01-10T19:00:19.294Z,23.57
2019-01-10T19:00:57.158Z,23.68
2019-01-10T19:01:33.911Z,23.58
2019-01-10T19:02:10.931Z,23.58
2019-01-10T19:02:47.695Z,23.57
2019-01-10T19:03:24.062Z,23.57
2019-01-10T19:04:00.853Z,23.54
2019-01-10T19:04:37.392Z,23.55
2019-01-10T19:05:14.452Z,23.55
2019-01-10T19:05:51.293Z,23.50
2019-01-10T19:06:27.812Z,23.44
2019-01-10T19:07:04.667Z,23.44
2019-01-10T19:07:41.128Z,23.39
2019-01-10T19:08:17.602Z,23.34
2019-01-10T19:08:54.442Z,23.35
2019-01-10T19:09:31.667Z,23.37
2019-01-10T19:10:09.284Z,23.36
2019-01-10T19:10:47.011Z,23.36
2019-01-10T19:11:23.501Z,23.34
2019-01-10T19:12:00.368Z,23.34
2019-01-10T19:12:37.044Z,23.33
2019-01-10T19:13:14.188Z,23.34
2019-01-10T19:13:50.998Z,23.32
2019-01-10T19:14:27.958Z,23.32
2019-01-10T19:15:04.543Z,23.27
2019-01-10T19:15:41.395Z,23.27
2019-01-10T19:16:18.016Z,23.31
2019-01-10T19:16:55.333Z,23.35
2019-01-10T19:17:31.773Z,23.33
2019-01-10T19:18:08.924Z,23.33
2019-01-10T19:18:46.173Z,23.36
2019-01-10T19:19:22.792Z,23.33
2019-01-10T19:19:59.853Z,23.30
2019-01-10T19:20:36.565Z,23.30
2019-01-10T19:21:13.781Z,23.29
2019-01-10T19:21:50.749Z,23.22
2019-01-10T19:22:27.627Z,23.22
2019-01-10T19:23:05.265Z,23.12
2019-01-10T19:23:42.156Z,23.12
2019-01-10T19:24:19.399Z,23.18
2019-01-10T19:24:57.011Z,23.22
2019-01-10T19:25:33.814Z,23.22
2019-01-10T19:26:11.031Z,23.20
2019-01-10T19:26:47.885Z,23.18
2019-01-10T19:27:24.587Z,23.18
2019-01-10T19:28:01.405Z,23.26
2019-01-10T19:28:38.711Z,22.93
2019-01-10T19:29:15.056Z,23.27
2019-01-10T19:29:51.565Z,23.27
2019-01-10T19:30:30.812Z,23.30
2019-01-10T19:31:07.719Z,23.25
2019-01-10T19:31:45.482Z,23.21
2019-01-10T19:32:22.536Z,23.26
2019-01-10T19:33:01.343Z,23.26
2019-01-10T19:33:38.298Z,23.22
2019-01-10T19:34:15.683Z,23.22
2019-01-10T19:34:51.870Z,23.18
2019-01-10T19:35:28.536Z,23.21
2019-01-10T19:36:05.243Z,23.24
2019-01-10T19:36:41.491Z,23.21
2019-01-10T19:37:17.941Z,23.22
2019-01-10T19:37:54.613Z,23.20
2019-01-10T19:38:31.266Z,23.16
2019-01-10T19:39:09.922Z,23.27
2019-01-10T19:39:47.181Z,23.26
2019-01-10T19:40:24.025Z,23.26
2019-01-10T19:41:00.804Z,23.22
2019-01-10T19:41:37.578Z,23.20
2019-01-10T19:42:14.484Z,23.22
2019-01-10T19:42:50.766Z,23.22
2019-01-10T19:43:26.968Z,23.11
2019-01-10T19:44:03.570Z,23.16
2019-01-10T19:44:40.870Z,23.18
2019-01-10T19:45:18.721Z,23.18
2019-01-10T19:45:55.669Z,23.11
2019-01-10T19:46:32.166Z,23.15
2019-01-10T19:47:09.111Z,23.15
2019-01-10T19:47:45.727Z,23.18
2019-01-10T19:48:21.893Z,23.18
2019-01-10T19:48:58.685Z,23.18
2019-01-10T19:49:36.171Z,23.14
2019-01-10T19:50:15.597Z,23.13
2019-01-10T19:50:52.085Z,23.14
2019-01-10T19:51:28.867Z,23.17
2019-01-10T19:52:06.239Z,23.14
2019-01-10T19:52:43.109Z,23.12
2019-01-10T19:53:19.776Z,23.12
2019-01-10T19:53:56.385Z,23.07
2019-01-10T19:54:33.606Z,23.05
2019-01-10T19:55:12.142Z,23.13
2019-01-10T19:55:49.115Z,23.16
2019-01-10T19:56:25.982Z,23.16
2019-01-10T19:57:02.905Z,23.16
2019-01-10T19:57:39.324Z,23.16
2019-01-10T19:58:16.172Z,23.14
2019-01-10T19:58:53.034Z,23.12
2019-01-10T19:59:29.935Z,23.15
2019-01-10T20:00:08.495Z,23.20
2019-01-10T20:00:48.652Z,23.21
2019-01-10T20:01:28.243Z,23.21
2019-01-10T20:02:04.726Z,23.27
2019-01-10T20:02:41.896Z,23.20
2019-01-10T20:03:18.691Z,23.14
2019-01-10T20:03:56.105Z,23.13
2019-01-10T20:04:33.014Z,23.13
2019-01-10T20:05:09.916Z,23.18
2019-01-10T20:05:46.752Z,23.24
2019-01-10T20:06:24.048Z,23.24
2019-01-10T20:07:00.981Z,23.24
2019-01-10T20:07:37.731Z,23.22
2019-01-10T20:08:14.592Z,23.22
2019-01-10T20:08:51.417Z,23.16
2019-01-10T20:09:30.024Z,23.25
2019-01-10T20:10:07.510Z,23.24
2019-01-10T20:10:44.200Z,23.21
2019-01-10T20:11:21.120Z,23.21
2019-01-10T20:12:16.820Z,23.12
2019-01-10T20:12:53.801Z,23.20
2019-01-10T20:13:31.687Z,23.22
2019-01-10T20:14:09.488Z,23.21
2019-01-10T20:14:46.166Z,23.18
2019-01-10T20:15:22.692Z,23.18
2019-01-10T20:15:59.802Z,23.11
2019-01-10T20:16:37.149Z,23.19
2019-01-10T20:17:13.856Z,23.19
2019-01-10T20:17:51.470Z,23.22
2019-01-10T20:18:28.646Z,23.24
2019-01-10T20:19:06.120Z,23.19
2019-01-10T20:19:43.010Z,23.19
2019-01-10T20:20:24.093Z,23.33
2019-01-10T20:21:01.195Z,23.39
2019-01-10T20:21:38.667Z,23.39
2019-01-10T20:22:16.072Z,23.34
2019-01-10T20:22:52.984Z,23.34
2019-01-10T20:23:32.728Z,23.42
2019-01-10T20:24:09.828Z,23.35
2019-01-10T20:24:47.312Z,23.33
2019-01-10T20:25:24.502Z,23.30
2019-01-10T20:26:01.586Z,23.26
2019-01-10T20:26:38.417Z,23.26
2019-01-10T20:27:15.600Z,23.21
2019-01-10T20:27:52.252Z,23.21
2019-01-10T20:28:28.875Z,23.22
2019-01-10T20:29:05.798Z,23.28